Time;durP1;ratioP1;P1;durP2;ratioP2;P2;SDS_P1;SDS_P2;PMS_P1;PMS_P2;Temp;Humidity;BMP_temperature;BMP_pressure;BME280_temperature;BME280_humidity;BME280_pressure;Samples;Min_cycle;Max_cycle;Signal;HPM_P1;HPM_P2
2022/08/18 00:02:24;;;;;;;;;;;;;;;29.46;37.64;94045.88;4988065;28;7430;-61
2022/08/18 00:04:52;;;;;;;;;;;;;;;29.46;37.51;94038.31;4987301;28;9036;-62
2022/08/18 00:07:29;;;;;;;;;;;;;;;29.44;37.73;94035.34;4981221;28;7324;-62
2022/08/18 00:09:57;;;;;;;;;;;;;;;29.44;38.05;94029.81;4988151;28;7244;-62
2022/08/18 00:12:44;;;;;;;;;;;;;;;29.45;37.59;94025.75;4981281;28;7205;-61
2022/08/18 00:15:14;;;;;;;;;;;;;;;29.42;38.13;94015.75;5001309;28;7078;-62
2022/08/18 00:17:47;;;;;;;;;;;;;;;29.43;37.65;94022.03;4990720;28;7524;-62
2022/08/18 00:20:18;;;;;;;;;;;;;;;29.44;37.81;94032.59;4990768;28;9223;-61
2022/08/18 00:22:44;;;;;;;;;;;;;;;29.44;37.89;94029.06;4987511;28;7087;-61
2022/08/18 00:25:16;;;;;;;;;;;;;;;29.43;38.22;94027.56;5006297;28;7241;-62
2022/08/18 00:27:42;;;;;;;;;;;;;;;29.43;38.23;94022.03;5004629;28;7087;-62
2022/08/18 00:30:15;;;;;;;;;;;;;;;29.42;37.83;94013.00;4996774;28;8715;-62
2022/08/18 00:32:46;;;;;;;;;;;;;;;29.41;38.01;93997.66;4986671;28;7563;-61
2022/08/18 00:35:19;;;;;;;;;;;;;;;29.39;38.28;93994.69;5002570;28;7483;-62
2022/08/18 00:37:47;;;;;;;;;;;;;;;29.42;37.45;93998.41;5004533;28;7239;-62
2022/08/18 00:40:19;;;;;;;;;;;;;;;29.39;37.63;93989.13;4981959;28;7258;-61
2022/08/18 00:42:54;;;;;;;;;;;;;;;29.39;37.96;93986.38;4991089;28;7063;-62
2022/08/18 00:45:38;;;;;;;;;;;;;;;29.39;37.64;93982.84;5008537;28;7068;-62
2022/08/18 00:48:16;;;;;;;;;;;;;;;29.37;38.30;93986.19;5008701;28;7027;-61
2022/08/18 00:50:52;;;;;;;;;;;;;;;29.37;37.89;93983.41;5006816;28;7408;-62
2022/08/18 00:53:34;;;;;;;;;;;;;;;29.37;38.39;93979.88;5005715;28;8927;-62
2022/08/18 00:56:21;;;;;;;;;;;;;;;29.36;37.77;93975.66;5005699;28;7236;-62
2022/08/18 00:59:13;;;;;;;;;;;;;;;29.37;37.93;93979.88;4988493;28;7264;-62
2022/08/18 01:01:51;;;;;;;;;;;;;;;29.37;38.23;93977.13;5007549;28;9077;-62
2022/08/18 01:04:59;;;;;;;;;;;;;;;29.36;38.05;93978.41;5006131;28;6973;-61
2022/08/18 01:07:34;;;;;;;;;;;;;;;29.35;37.66;93969.34;4929716;29;7476;-62
2022/08/18 01:10:01;;;;;;;;;;;;;;;29.34;38.25;93967.13;4933696;29;8393;-62
2022/08/18 01:12:36;;;;;;;;;;;;;;;29.34;37.66;93967.13;4934669;28;7305;-62
2022/08/18 01:15:05;;;;;;;;;;;;;;;29.33;38.36;93968.41;4935741;28;7277;-62
2022/08/18 01:23:44;;;;;;;;;;;;;;;29.31;38.27;93971.00;4952733;28;8245;-62
2022/08/18 01:26:15;;;;;;;;;;;;;;;29.31;38.60;93971.00;4933786;28;7166;-62
2022/08/18 01:28:45;;;;;;;;;;;;;;;29.29;38.46;93960.47;4934917;28;7539;-62
2022/08/18 01:31:40;;;;;;;;;;;;;;;29.31;38.73;93959.91;4950249;28;6991;-62
2022/08/18 01:34:08;;;;;;;;;;;;;;;29.30;38.56;93958.41;4929881;28;7811;-62
2022/08/18 01:36:39;;;;;;;;;;;;;;;29.29;38.01;93959.72;4939581;28;9379;-62
2022/08/18 01:39:11;;;;;;;;;;;;;;;29.29;38.23;93951.41;4928696;28;7036;-62
2022/08/18 01:41:38;;;;;;;;;;;;;;;29.28;38.19;93950.66;4947627;28;7173;-62
2022/08/18 01:44:07;;;;;;;;;;;;;;;29.27;38.05;93937.38;4973034;28;9093;-61
2022/08/18 01:46:34;;;;;;;;;;;;;;;29.27;37.77;93938.13;5006997;28;7335;-62
2022/08/18 01:49:02;;;;;;;;;;;;;;;29.27;38.02;93927.03;5004001;28;9094;-62
2022/08/18 01:51:33;;;;;;;;;;;;;;;29.27;38.58;93923.50;4989617;28;9122;-62
2022/08/18 01:54:12;;;;;;;;;;;;;;;29.26;38.44;93910.94;4988419;28;7156;-62
2022/08/18 01:56:41;;;;;;;;;;;;;;;29.26;38.70;93905.41;4990027;28;7323;-62
2022/08/18 01:59:13;;;;;;;;;;;;;;;29.26;38.12;93919.25;4988107;28;8736;-62
2022/08/18 02:01:46;;;;;;;;;;;;;;;29.25;37.78;93910.22;4989902;28;7373;-61
2022/08/18 02:04:15;;;;;;;;;;;;;;;29.25;38.22;93898.38;5006016;28;6992;-62
2022/08/18 02:06:41;;;;;;;;;;;;;;;29.24;37.88;93902.44;4990302;28;9056;-62
2022/08/18 02:09:07;;;;;;;;;;;;;;;29.23;37.89;93907.22;5005786;28;7463;-62
2022/08/18 02:11:34;;;;;;;;;;;;;;;29.25;38.21;93906.69;4990433;28;7291;-62
2022/08/18 02:14:00;;;;;;;;;;;;;;;29.24;38.60;93903.19;4988837;28;9047;-62
2022/08/18 02:16:33;;;;;;;;;;;;;;;29.25;38.59;93907.44;4982805;28;7062;-62
2022/08/18 02:18:59;;;;;;;;;;;;;;;29.24;37.93;93899.66;4987769;28;7148;-62
2022/08/18 02:21:25;;;;;;;;;;;;;;;29.24;38.17;93899.66;4990581;28;7349;-62
2022/08/18 02:23:51;;;;;;;;;;;;;;;29.23;38.48;93889.88;4987721;28;9062;-62
2022/08/18 02:26:18;;;;;;;;;;;;;;;29.22;38.18;93896.69;4982788;28;10053;-62
2022/08/18 02:28:44;;;;;;;;;;;;;;;29.21;38.33;93898.72;4982642;28;7474;-62
2022/08/18 02:31:25;;;;;;;;;;;;;;;29.20;37.87;93893.75;5010017;28;7209;-62
2022/08/18 02:33:52;;;;;;;;;;;;;;;29.21;38.19;93889.69;4992618;28;7217;-62
2022/08/18 02:36:31;;;;;;;;;;;;;;;29.19;38.07;93881.19;4990725;28;7233;-62
2022/08/18 02:38:59;;;;;;;;;;;;;;;29.19;37.75;93878.44;5007237;28;7074;-61
2022/08/18 02:41:27;;;;;;;;;;;;;;;29.19;37.90;93883.97;4994465;28;9087;-62
2022/08/18 02:44:02;;;;;;;;;;;;;;;29.18;38.65;93888.75;5011585;28;7391;-62
2022/08/18 02:46:37;;;;;;;;;;;;;;;29.15;38.35;93891.84;5007750;28;7500;-61
2022/08/18 02:49:09;;;;;;;;;;;;;;;29.17;38.56;93883.78;4983819;28;7030;-62
2022/08/18 02:51:35;;;;;;;;;;;;;;;29.17;38.37;93876.19;4986652;28;9051;-62
2022/08/18 02:54:02;;;;;;;;;;;;;;;29.16;38.60;93877.47;4971598;28;7297;-62
2022/08/18 02:56:30;;;;;;;;;;;;;;;29.17;38.70;93883.78;5006130;28;9078;-62
2022/08/18 02:59:06;;;;;;;;;;;;;;;29.16;38.64;93888.56;5003132;28;9102;-62
2022/08/18 03:01:39;;;;;;;;;;;;;;;29.15;38.34;93891.84;4983301;28;8595;-62
2022/08/18 03:04:41;;;;;;;;;;;;;;;29.15;38.41;93898.13;5008885;28;7501;-62
2022/08/18 03:07:29;;;;;;;;;;;;;;;29.15;37.96;93900.13;4939960;28;7075;-62
2022/08/18 03:09:55;;;;;;;;;;;;;;;29.14;38.50;93893.13;4939285;28;7226;-62
2022/08/18 03:12:24;;;;;;;;;;;;;;;29.12;38.36;93890.16;4942028;28;9173;-62
2022/08/18 03:14:50;;;;;;;;;;;;;;;29.08;38.35;93882.94;4941079;28;7092;-62
2022/08/18 03:17:24;;;;;;;;;;;;;;;29.08;38.24;93876.66;4940715;28;7036;-61
2022/08/18 03:19:52;;;;;;;;;;;;;;;29.08;38.37;93876.66;4940026;28;7235;-62
2022/08/18 03:22:46;;;;;;;;;;;;;;;29.10;38.24;93882.41;4941760;28;7297;-62
2022/08/18 03:25:21;;;;;;;;;;;;;;;29.07;37.93;93875.94;4937508;28;7265;-62
2022/08/18 03:27:57;;;;;;;;;;;;;;;29.04;38.33;93865.94;4940106;28;7314;-62
2022/08/18 03:30:23;;;;;;;;;;;;;;;29.05;38.36;93867.44;4935530;28;9142;-61
2022/08/18 03:32:53;;;;;;;;;;;;;;;29.07;38.50;93870.41;4939918;28;7454;-62
2022/08/18 03:35:39;;;;;;;;;;;;;;;29.08;38.08;93871.88;4937872;28;9146;-62
2022/08/18 03:38:18;;;;;;;;;;;;;;;29.08;38.35;93871.13;4940780;28;7231;-62
2022/08/18 03:40:52;;;;;;;;;;;;;;;29.09;38.67;93870.59;4921970;28;9516;-62
2022/08/18 03:43:18;;;;;;;;;;;;;;;29.09;38.69;93892.00;4973845;28;9065;-62
2022/08/18 03:45:45;;;;;;;;;;;;;;;29.08;38.43;93887.72;4986306;28;8697;-62
2022/08/18 03:48:11;;;;;;;;;;;;;;;29.08;38.11;93898.81;4982287;28;7356;-62
2022/08/18 03:50:37;;;;;;;;;;;;;;;29.06;38.68;93896.59;4981289;28;7872;-62
2022/08/18 03:53:05;;;;;;;;;;;;;;;29.06;37.94;93896.59;4998203;28;6915;-62
2022/08/18 03:55:31;;;;;;;;;;;;;;;29.06;38.43;93904.16;5004793;28;7150;-62
2022/08/18 03:58:01;;;;;;;;;;;;;;;29.05;38.29;93905.47;5006578;28;7335;-62
2022/08/18 04:00:32;;;;;;;;;;;;;;;29.04;38.79;93904.72;4985379;28;7614;-62
2022/08/18 04:03:02;;;;;;;;;;;;;;;29.03;38.34;93896.97;4989153;28;7012;-62
2022/08/18 04:05:31;;;;;;;;;;;;;;;29.02;38.12;93898.97;4988356;28;9173;-62
2022/08/18 04:07:58;;;;;;;;;;;;;;;29.01;38.63;93883.63;4993714;28;7010;-62
2022/08/18 04:10:24;;;;;;;;;;;;;;;29.02;38.03;93874.06;4997897;28;7024;-62
2022/08/18 04:12:50;;;;;;;;;;;;;;;29.01;38.23;93853.19;5010543;28;9124;-62
2022/08/18 04:15:16;;;;;;;;;;;;;;;29.02;38.61;93829.75;4984200;28;7731;-61
2022/08/18 04:17:58;;;;;;;;;;;;;;;29.03;38.59;93788.97;4989464;28;7264;-61
2022/08/18 04:20:24;;;;;;;;;;;;;;;29.01;38.07;93742.44;4991064;28;7249;-61
2022/08/18 04:22:53;;;;;;;;;;;;;;;29.00;37.99;93718.81;4992794;28;7510;-62
2022/08/18 04:25:25;;;;;;;;;;;;;;;29.00;38.54;93732.66;4991846;28;7271;-62
2022/08/18 04:27:56;;;;;;;;;;;;;;;29.01;38.66;93756.28;5010089;28;7050;-62
2022/08/18 04:30:28;;;;;;;;;;;;;;;29.01;38.35;93761.09;5005055;28;7013;-62
2022/08/18 04:33:26;;;;;;;;;;;;;;;29.00;38.38;93767.91;5007843;28;8803;-62
2022/08/18 04:36:15;;;;;;;;;;;;;;;28.99;38.30;93758.84;4948505;28;7387;-62
2022/08/18 04:38:43;;;;;;;;;;;;;;;29.02;37.90;93768.84;4932980;29;7307;-62
2022/08/18 04:41:12;;;;;;;;;;;;;;;29.03;38.00;93759.25;4950961;28;7200;-62
2022/08/18 04:43:49;;;;;;;;;;;;;;;29.03;38.24;93770.34;4950096;29;7309;-61
2022/08/18 04:46:15;;;;;;;;;;;;;;;28.99;37.85;93797.63;4931854;28;7269;-62
2022/08/18 04:48:43;;;;;;;;;;;;;;;29.00;37.82;93826.78;4932431;28;7090;-61
2022/08/18 04:51:13;;;;;;;;;;;;;;;29.01;38.67;93855.22;4946943;28;8805;-62
2022/08/18 04:53:49;;;;;;;;;;;;;;;29.00;38.13;93864.81;4940092;28;7875;-62
2022/08/18 04:56:24;;;;;;;;;;;;;;;29.01;37.89;93850.41;4931869;28;7215;-62
2022/08/18 04:58:58;;;;;;;;;;;;;;;29.00;38.11;93832.34;4928659;28;9513;-62
2022/08/18 05:01:30;;;;;;;;;;;;;;;29.00;37.84;93837.88;4932137;28;7136;-62
2022/08/18 05:03:59;;;;;;;;;;;;;;;28.99;37.93;93838.44;4931301;28;7058;-62
2022/08/18 05:06:30;;;;;;;;;;;;;;;28.98;38.24;93837.69;4950639;28;9101;-63
2022/08/18 05:08:59;;;;;;;;;;;;;;;28.98;37.90;93840.44;4934191;28;9077;-62
2022/08/18 05:11:30;;;;;;;;;;;;;;;28.98;37.97;93850.78;4939473;28;8773;-62
2022/08/18 05:13:56;;;;;;;;;;;;;;;28.99;38.73;93861.28;4986650;28;8801;-62
2022/08/18 05:16:24;;;;;;;;;;;;;;;28.97;38.25;93854.84;4994398;28;7316;-63
2022/08/18 05:19:06;;;;;;;;;;;;;;;28.95;38.78;93880.28;4998697;28;9678;-61
2022/08/18 05:21:43;;;;;;;;;;;;;;;28.92;38.59;93881.41;4994510;28;8210;-61
2022/08/18 05:24:26;;;;;;;;;;;;;;;28.93;38.43;93871.78;5009791;28;9500;-61
2022/08/18 05:26:54;;;;;;;;;;;;;;;28.91;38.69;93876.38;4993273;28;7074;-61
2022/08/18 05:29:24;;;;;;;;;;;;;;;28.90;38.98;93877.69;4986780;28;7214;-62
2022/08/18 05:32:30;;;;;;;;;;;;;;;28.93;41.27;93885.63;4990859;28;7328;-62
2022/08/18 05:34:59;;;;;;;;;;;;;;;28.93;39.24;93885.63;4948791;28;8012;-61
2022/08/18 05:37:44;;;;;;;;;;;;;;;28.94;39.08;93895.44;4934318;28;7288;-62
2022/08/18 05:40:23;;;;;;;;;;;;;;;28.94;39.07;93900.97;4932450;28;7050;-63
2022/08/18 05:43:03;;;;;;;;;;;;;;;28.95;39.17;93891.38;4935438;28;7103;-62
2022/08/18 05:45:43;;;;;;;;;;;;;;;28.95;39.13;93885.81;4950697;28;7240;-62
2022/08/18 05:48:23;;;;;;;;;;;;;;;28.97;38.75;93897.09;4936501;28;7042;-62
2022/08/18 05:50:53;;;;;;;;;;;;;;;28.96;38.85;93912.25;4949447;28;7309;-62
2022/08/18 05:56:45;;;;;;;;;;;;;;;29.01;39.28;93921.69;4930466;28;9266;-62
2022/08/18 05:59:03;;;;;;;;;;;;;;;29.01;38.94;93944.56;4942819;28;8847;-61
2022/08/18 06:01:40;;;;;;;;;;;;;;;29.01;38.82;93938.28;4941974;28;7041;-61
2022/08/18 06:04:21;;;;;;;;;;;;;;;29.02;39.16;93937.75;4926661;28;7245;-61
2022/08/18 06:06:52;;;;;;;;;;;;;;;29.05;38.89;93936.66;4931546;28;7180;-61
2022/08/18 06:09:27;;;;;;;;;;;;;;;29.03;38.64;93930.19;4971899;28;7323;-61
2022/08/18 06:12:14;;;;;;;;;;;;;;;29.04;39.11;93906.72;5004959;28;9749;-61
2022/08/18 06:14:40;;;;;;;;;;;;;;;29.03;39.11;93919.84;5004801;28;8420;-61
2022/08/18 06:17:28;;;;;;;;;;;;;;;29.02;39.25;93929.44;5007437;28;7239;-61
2022/08/18 06:20:16;;;;;;;;;;;;;;;29.01;39.51;93933.47;5008116;28;9035;-61
2022/08/18 06:23:24;;;;;;;;;;;;;;;29.01;39.11;93947.31;4992720;28;9545;-61
2022/08/18 06:26:21;;;;;;;;;;;;;;;29.02;40.07;93957.13;4992898;28;9160;-61
2022/08/18 06:29:35;;;;;;;;;;;;;;;29.03;39.46;93950.31;4991480;28;7210;-61
2022/08/18 06:32:34;;;;;;;;;;;;;;;29.05;39.93;93949.75;4991558;28;9487;-62
2022/08/18 06:35:07;;;;;;;;;;;;;;;29.04;39.39;93949.00;5005759;28;8988;-61
2022/08/18 06:40:29;;;;;;;;;;;;;;;29.02;39.65;93954.34;5000711;28;7229;-61
2022/08/18 06:42:59;;;;;;;;;;;;;;;28.99;39.80;93957.47;4988079;28;6868;-61
2022/08/18 06:45:34;;;;;;;;;;;;;;;29.00;39.64;93954.16;5002104;28;7285;-61
2022/08/18 06:48:14;;;;;;;;;;;;;;;28.99;40.26;93963.75;4986255;28;9216;-61
2022/08/18 06:50:59;;;;;;;;;;;;;;;28.97;39.97;93971.13;4982913;28;7956;-61
2022/08/18 06:53:51;;;;;;;;;;;;;;;28.98;40.10;93984.44;5003506;28;9155;-61
2022/08/18 06:56:39;;;;;;;;;;;;;;;28.94;39.61;93981.25;4985478;28;7058;-60
2022/08/18 06:59:26;;;;;;;;;;;;;;;28.93;39.99;93959.63;5004838;28;7074;-61
2022/08/18 07:01:59;;;;;;;;;;;;;;;28.91;39.81;93957.41;4984973;28;10035;-61
2022/08/18 07:04:37;;;;;;;;;;;;;;;28.92;39.22;93967.22;5000800;28;7078;-61
2022/08/18 07:07:19;;;;;;;;;;;;;;;28.88;39.54;93969.56;4985580;28;7238;-61
2022/08/18 07:09:46;;;;;;;;;;;;;;;28.90;39.83;93969.78;4984540;28;7024;-60
2022/08/18 07:12:23;;;;;;;;;;;;;;;28.91;39.73;93967.75;5001004;28;7019;-61
2022/08/18 07:14:57;;;;;;;;;;;;;;;28.91;39.71;93954.66;4979850;28;7078;-61
2022/08/18 07:17:32;;;;;;;;;;;;;;;28.93;40.10;93954.84;5005590;28;7504;-61
2022/08/18 07:19:59;;;;;;;;;;;;;;;28.93;39.93;93965.16;4991659;28;6868;-61
2022/08/18 07:22:26;;;;;;;;;;;;;;;28.90;39.35;93967.03;4982351;28;7007;-61
2022/08/18 07:24:57;;;;;;;;;;;;;;;28.92;39.77;93980.31;4987479;28;8953;-61
2022/08/18 07:27:43;;;;;;;;;;;;;;;28.93;39.78;93981.78;4984041;28;7345;-61
2022/08/18 07:30:34;;;;;;;;;;;;;;;28.93;39.45;93979.75;5004428;28;7193;-61
2022/08/18 07:33:04;;;;;;;;;;;;;;;28.94;39.97;93981.25;5004741;28;7178;-61
2022/08/18 07:35:46;;;;;;;;;;;;;;;28.92;39.32;93981.06;5005747;28;7252;-61
2022/08/18 07:38:35;;;;;;;;;;;;;;;28.93;39.72;93981.78;5005768;28;9103;-61
2022/08/18 07:41:13;;;;;;;;;;;;;;;28.92;39.46;93981.06;5005698;28;6992;-61
2022/08/18 07:44:15;;;;;;;;;;;;;;;28.93;39.66;93976.25;5005623;28;7000;-61
2022/08/18 07:46:51;;;;;;;;;;;;;;;28.92;39.61;93975.53;4991253;28;7100;-61
2022/08/18 07:50:03;;;;;;;;;;;;;;;28.92;39.31;93963.72;5007798;28;7211;-61
2022/08/18 07:52:40;;;;;;;;;;;;;;;28.93;39.08;93948.56;4989405;28;9024;-61
2022/08/18 07:55:29;;;;;;;;;;;;;;;28.94;39.64;93945.28;4990780;28;7586;-61
2022/08/18 07:58:27;;;;;;;;;;;;;;;28.93;39.56;93949.31;4987786;28;8921;-61
2022/08/18 08:01:17;;;;;;;;;;;;;;;28.93;39.26;93941.00;4991248;28;7417;-61
2022/08/18 08:04:02;;;;;;;;;;;;;;;28.94;39.07;93934.19;4992929;28;7735;-61
2022/08/18 08:06:49;;;;;;;;;;;;;;;28.94;39.13;93925.88;5010489;28;7005;-61
2022/08/18 08:09:18;;;;;;;;;;;;;;;28.93;39.38;93921.63;5008111;28;7844;-61
2022/08/18 08:12:22;;;;;;;;;;;;;;;28.94;38.79;93914.81;4989885;28;7209;-61
2022/08/18 08:14:57;;;;;;;;;;;;;;;28.93;39.89;93921.63;4929964;29;8762;-61
2022/08/18 08:17:52;;;;;;;;;;;;;;;28.93;39.16;93921.63;4931014;29;6998;-61
2022/08/18 08:20:38;;;;;;;;;;;;;;;28.93;39.26;93924.41;4931699;29;7877;-61
2022/08/18 08:24:01;;;;;;;;;;;;;;;28.89;39.64;93912.94;4935515;29;7005;-61
2022/08/18 08:26:55;;;;;;;;;;;;;;;28.91;38.96;93915.91;4932738;29;7198;-61
2022/08/18 08:29:36;;;;;;;;;;;;;;;28.90;39.34;93933.06;4931546;29;7182;-61
2022/08/18 08:32:21;;;;;;;;;;;;;;;28.92;39.80;93945.06;4930015;29;9066;-61
2022/08/18 08:35:30;;;;;;;;;;;;;;;28.93;39.47;93960.38;4917801;29;7118;-61
2022/08/18 08:41:11;;;;;;;;;;;;;;;28.93;39.29;93957.63;4886450;29;6999;-61
2022/08/18 08:43:50;;;;;;;;;;;;;;;28.94;39.14;93956.34;4884514;29;8051;-61
2022/08/18 08:46:33;;;;;;;;;;;;;;;28.96;39.28;93955.78;4881505;29;8881;-61
2022/08/18 08:49:15;;;;;;;;;;;;;;;28.95;39.24;93948.75;4876141;29;6996;-61
2022/08/18 08:51:58;;;;;;;;;;;;;;;28.96;39.30;93948.22;4931029;29;7192;-61
2022/08/18 08:54:43;;;;;;;;;;;;;;;28.97;39.65;93935.84;4929777;29;7271;-61
2022/08/18 08:57:12;;;;;;;;;;;;;;;28.97;39.21;93915.75;4913425;29;9114;-61
2022/08/18 08:59:43;;;;;;;;;;;;;;;28.98;39.26;93923.50;4929364;28;9104;-61
2022/08/18 09:02:35;;;;;;;;;;;;;;;29.01;39.62;93925.16;4914063;29;7241;-61
2022/08/18 09:05:27;;;;;;;;;;;;;;;29.00;39.05;93934.78;4913788;29;7241;-61
2022/08/18 09:07:53;;;;;;;;;;;;;;;29.01;39.05;93939.03;4933339;29;7231;-61
2022/08/18 09:10:30;;;;;;;;;;;;;;;29.02;39.05;93929.44;4933889;29;8901;-61
2022/08/18 09:13:32;;;;;;;;;;;;;;;29.03;39.46;93924.66;4954705;28;8249;-61
2022/08/18 09:16:12;;;;;;;;;;;;;;;29.01;39.46;93922.41;4992879;28;7645;-61
2022/08/18 09:19:00;;;;;;;;;;;;;;;29.01;38.99;93933.47;4995025;28;7028;-61
2022/08/18 09:21:37;;;;;;;;;;;;;;;29.02;39.21;93929.44;4991609;28;7583;-61
2022/08/18 09:24:27;;;;;;;;;;;;;;;29.03;38.70;93925.41;4989920;28;7417;-61
2022/08/18 09:27:21;;;;;;;;;;;;;;;29.03;39.54;93919.84;5011410;28;9431;-62
2022/08/18 09:30:07;;;;;;;;;;;;;;;29.03;39.03;93911.56;4995244;28;7243;-61
2022/08/18 09:33:13;;;;;;;;;;;;;;;29.04;38.78;93904.72;4989511;28;7876;-61
2022/08/18 09:36:19;;;;;;;;;;;;;;;29.04;39.60;93904.72;4990334;28;8766;-61
2022/08/18 09:42:06;;;;;;;;;;;;;;;29.08;39.46;93888.47;5008584;28;7213;-61
2022/08/18 09:44:54;;;;;;;;;;;;;;;29.09;38.69;93894.78;4988182;28;8763;-61
2022/08/18 09:47:20;;;;;;;;;;;;;;;29.07;38.69;93892.56;5010865;28;7985;-61
2022/08/18 09:50:18;;;;;;;;;;;;;;;29.08;39.00;93893.28;4994414;28;7385;-61
2022/08/18 09:52:49;;;;;;;;;;;;;;;29.07;39.43;93892.56;4991727;28;7108;-61
2022/08/18 09:55:25;;;;;;;;;;;;;;;29.08;39.17;93882.94;5008477;28;8775;-60
2022/08/18 09:58:30;;;;;;;;;;;;;;;29.09;38.83;93875.38;4991739;28;7044;-61
2022/08/18 10:01:35;;;;;;;;;;;;;;;29.09;38.54;93856.75;4992214;28;7206;-61
2022/08/18 10:04:49;;;;;;;;;;;;;;;29.08;39.54;93860.03;5009508;28;7406;-61
2022/08/18 10:07:32;;;;;;;;;;;;;;;29.09;39.46;93856.75;5008336;28;7371;-61
2022/08/18 10:10:23;;;;;;;;;;;;;;;29.08;39.06;93846.94;5009405;28;8734;-61
2022/08/18 10:13:22;;;;;;;;;;;;;;;29.09;39.15;93842.16;5008740;28;6997;-61
2022/08/18 10:16:30;;;;;;;;;;;;;;;29.09;39.34;93845.66;4993338;28;9072;-61
2022/08/18 10:18:58;;;;;;;;;;;;;;;29.12;38.81;93870.78;4982148;28;7248;-61
2022/08/18 10:21:47;;;;;;;;;;;;;;;29.10;38.64;93865.81;5010644;28;7147;-61
2022/08/18 10:24:51;;;;;;;;;;;;;;;29.13;39.31;93855.63;5010802;28;8511;-61
2022/08/18 10:27:47;;;;;;;;;;;;;;;29.13;39.20;93861.19;4993556;28;7062;-61
2022/08/18 10:31:08;;;;;;;;;;;;;;;29.13;38.58;93855.63;4990095;28;9066;-61
2022/08/18 10:33:55;;;;;;;;;;;;;;;29.15;38.34;93859.34;4916856;29;7189;-61
2022/08/18 10:36:42;;;;;;;;;;;;;;;29.15;38.67;93841.97;4931364;29;7232;-61
2022/08/18 10:39:20;;;;;;;;;;;;;;;29.19;39.07;93836.88;4915155;29;7500;-61
2022/08/18 10:42:12;;;;;;;;;;;;;;;29.17;38.82;93834.63;4931416;29;9459;-61
2022/08/18 10:44:49;;;;;;;;;;;;;;;29.17;38.75;93826.34;4914143;29;6999;-61
2022/08/18 10:47:25;;;;;;;;;;;;;;;29.18;38.87;93816.00;4914597;29;7703;-61
2022/08/18 10:53:49;;;;;;;;;;;;;;;29.20;39.09;93810.66;4912583;29;7256;-61
2022/08/18 10:56:39;;;;;;;;;;;;;;;29.20;39.34;93813.41;4897155;29;7473;-61
2022/08/18 10:59:32;;;;;;;;;;;;;;;29.20;38.93;93810.66;4895684;29;7226;-61
2022/08/18 11:02:46;;;;;;;;;;;;;;;29.21;38.81;93801.78;4893436;29;7274;-61
2022/08/18 11:05:20;;;;;;;;;;;;;;;29.19;38.77;93818.22;4896592;29;7239;-61
2022/08/18 11:07:50;;;;;;;;;;;;;;;29.20;38.89;93824.50;4929146;29;9477;-61
2022/08/18 11:10:33;;;;;;;;;;;;;;;29.21;39.26;93814.91;4892753;28;1206392;-61
2022/08/18 11:13:20;;;;;;;;;;;;;;;29.22;38.82;93802.53;4948402;28;7595;-61
2022/08/18 11:16:03;;;;;;;;;;;;;;;29.22;39.00;93802.53;4950330;28;8267;-61
2022/08/18 11:18:48;;;;;;;;;;;;;;;29.22;39.38;93800.50;4934988;28;7466;-61
2022/08/18 11:21:40;;;;;;;;;;;;;;;29.21;39.15;93796.25;4934330;28;7153;-61
2022/08/18 11:24:24;;;;;;;;;;;;;;;29.20;38.70;93788.50;4950785;28;8785;-61
2022/08/18 11:26:53;;;;;;;;;;;;;;;29.23;38.98;93809.56;4931683;28;9411;-61
2022/08/18 11:29:46;;;;;;;;;;;;;;;29.22;39.09;93806.03;4966931;28;7355;-61
2022/08/18 11:32:34;;;;;;;;;;;;;;;29.22;38.78;93808.81;5009014;28;9377;-61
2022/08/18 11:35:20;;;;;;;;;;;;;;;29.21;39.22;93807.31;4993656;28;7228;-61
2022/08/18 11:38:04;;;;;;;;;;;;;;;29.23;39.31;93821.34;4989373;28;7410;-60
2022/08/18 11:40:44;;;;;;;;;;;;;;;29.25;38.29;93818.81;4987443;28;7224;-61
2022/08/18 11:43:12;;;;;;;;;;;;;;;29.24;38.67;93820.09;4993176;28;9052;-61
2022/08/18 11:45:45;;;;;;;;;;;;;;;29.25;38.83;93824.34;4985936;28;9429;-60
2022/08/18 11:48:18;;;;;;;;;;;;;;;29.27;38.80;93821.03;5009220;28;9242;-60
2022/08/18 11:50:58;;;;;;;;;;;;;;;29.25;38.33;93823.59;4992603;28;7080;-61
2022/08/18 11:53:48;;;;;;;;;;;;;;;29.26;38.46;93814.00;4990748;28;7370;-61
2022/08/18 11:56:30;;;;;;;;;;;;;;;29.26;38.88;93819.53;5004897;28;7231;-61
2022/08/18 11:59:01;;;;;;;;;;;;;;;29.25;38.78;93823.59;4980745;28;7283;-61
2022/08/18 12:01:42;;;;;;;;;;;;;;;29.25;38.75;93832.66;4988209;28;8937;-60
2022/08/18 12:04:23;;;;;;;;;;;;;;;29.27;38.95;93826.56;5005420;28;7433;-60
2022/08/18 12:06:55;;;;;;;;;;;;;;;29.29;38.03;93823.97;5004366;28;8725;-60
2022/08/18 12:09:32;;;;;;;;;;;;;;;29.28;38.75;93820.47;4985893;28;7165;-60
2022/08/18 12:12:05;;;;;;;;;;;;;;;29.30;38.81;93814.38;4987301;28;7058;-60
2022/08/18 12:14:50;;;;;;;;;;;;;;;29.29;38.80;93812.91;4990210;28;7660;-60
2022/08/18 12:17:39;;;;;;;;;;;;;;;29.31;38.18;93802.00;5007561;28;7507;-60
2022/08/18 12:20:17;;;;;;;;;;;;;;;29.32;38.80;93800.72;4986716;28;6994;-60
2022/08/18 12:22:59;;;;;;;;;;;;;;;29.32;38.27;93795.19;5008576;28;8455;-60
2022/08/18 12:25:25;;;;;;;;;;;;;;;29.31;38.86;93793.69;4989532;28;9699;-60
2022/08/18 12:28:02;;;;;;;;;;;;;;;29.30;38.29;93794.97;5006554;28;7230;-60
2022/08/18 12:30:30;;;;;;;;;;;;;;;29.29;38.36;93796.28;5006180;28;7224;-60
2022/08/18 12:32:58;;;;;;;;;;;;;;;29.29;38.64;93794.25;5008305;28;9057;-60
2022/08/18 12:35:28;;;;;;;;;;;;;;;29.29;38.68;93791.50;5009989;28;7132;-60
2022/08/18 12:37:55;;;;;;;;;;;;;;;29.28;38.44;93792.75;4990910;28;7230;-60
2022/08/18 12:40:28;;;;;;;;;;;;;;;29.30;38.68;93783.91;4984663;28;7157;-60
2022/08/18 12:43:11;;;;;;;;;;;;;;;29.31;38.12;93777.81;4993637;28;9211;-60
2022/08/18 12:45:37;;;;;;;;;;;;;;;29.31;38.63;93777.06;4987466;28;8854;-60
2022/08/18 12:48:06;;;;;;;;;;;;;;;29.30;38.43;93784.66;5006992;28;9402;-60
2022/08/18 12:50:37;;;;;;;;;;;;;;;29.31;38.41;93788.16;5006081;28;7271;-60
2022/08/18 12:53:03;;;;;;;;;;;;;;;29.33;38.61;93788.34;4987913;28;7447;-60
2022/08/18 12:55:42;;;;;;;;;;;;;;;29.31;38.94;93782.63;5005076;28;7031;-60
2022/08/18 12:58:08;;;;;;;;;;;;;;;29.30;38.17;93787.41;4980663;28;7280;-60
2022/08/18 13:00:35;;;;;;;;;;;;;;;29.32;38.87;93795.19;5003670;28;7151;-60
2022/08/18 13:03:01;;;;;;;;;;;;;;;29.32;38.14;93795.19;5004410;28;9557;-60
2022/08/18 13:05:44;;;;;;;;;;;;;;;29.31;38.88;93788.91;5008671;28;7290;-60
2022/08/18 13:08:21;;;;;;;;;;;;;;;29.30;38.73;93787.41;4992647;28;9042;-60
2022/08/18 13:10:53;;;;;;;;;;;;;;;29.30;38.86;93792.22;5012920;28;8334;-60
2022/08/18 13:13:22;;;;;;;;;;;;;;;29.31;38.08;93785.38;4995974;28;7162;-60
2022/08/18 13:15:53;;;;;;;;;;;;;;;29.32;38.80;93790.38;4994313;28;7212;-60
2022/08/18 13:18:31;;;;;;;;;;;;;;;29.31;38.10;93791.69;4987740;28;7368;-60
2022/08/18 13:21:11;;;;;;;;;;;;;;;29.31;38.72;93794.44;5011404;28;9101;-60
2022/08/18 13:23:57;;;;;;;;;;;;;;;29.31;38.19;93793.69;4993542;28;7194;-60
2022/08/18 13:26:34;;;;;;;;;;;;;;;29.29;38.61;93796.28;4994296;28;9008;-60
2022/08/18 13:29:02;;;;;;;;;;;;;;;29.30;38.55;93795.72;4991309;28;8772;-60
2022/08/18 13:31:33;;;;;;;;;;;;;;;29.30;38.30;93797.75;4989733;28;7248;-61
2022/08/18 13:34:02;;;;;;;;;;;;;;;29.29;38.83;93801.81;5005242;28;7406;-61
2022/08/18 13:36:43;;;;;;;;;;;;;;;29.30;38.64;93808.81;4991035;28;7269;-61
2022/08/18 13:39:12;;;;;;;;;;;;;;;29.30;38.43;93804.03;5005122;28;7274;-61
2022/08/18 13:41:48;;;;;;;;;;;;;;;29.30;38.06;93809.56;4989229;28;7308;-61
2022/08/18 13:44:19;;;;;;;;;;;;;;;29.30;38.53;93809.56;5007475;28;7276;-61
2022/08/18 13:46:46;;;;;;;;;;;;;;;29.30;38.72;93812.34;5003847;28;7321;-61
2022/08/18 13:49:18;;;;;;;;;;;;;;;29.30;37.92;93822.69;5007486;28;7411;-61
2022/08/18 13:51:45;;;;;;;;;;;;;;;29.31;38.20;93818.63;4982921;28;7313;-60
2022/08/18 13:54:20;;;;;;;;;;;;;;;29.32;38.57;93818.06;4983985;28;7055;-61
2022/08/18 13:56:49;;;;;;;;;;;;;;;29.32;38.65;93817.34;4989945;28;9064;-61
2022/08/18 13:59:19;;;;;;;;;;;;;;;29.31;38.21;93813.84;4989434;28;9584;-61
2022/08/18 14:01:45;;;;;;;;;;;;;;;29.30;37.88;93817.88;5006335;28;9156;-61
2022/08/18 14:04:21;;;;;;;;;;;;;;;29.31;38.44;93821.41;5008932;28;8144;-61
2022/08/18 14:06:50;;;;;;;;;;;;;;;29.32;38.38;93820.84;5007187;28;7136;-61
2022/08/18 14:09:16;;;;;;;;;;;;;;;29.32;37.90;93815.31;5004185;28;7266;-61
2022/08/18 14:11:46;;;;;;;;;;;;;;;29.32;38.33;93815.31;5004556;28;8887;-61
2022/08/18 14:14:16;;;;;;;;;;;;;;;29.34;37.93;93825.84;5002459;28;7140;-61
2022/08/18 14:16:42;;;;;;;;;;;;;;;29.32;38.39;93818.06;4995649;28;8760;-61